• Join FlightAware (Why Join?)
  • Login
  • US Flag 
11:30PM EDT


 

Airport Tracker/Info


-or-


 

Live Flight TrackerFlight Track Log ✈ N182HP ✈ 09-May-2013 ✈ KRWI - KMTN

Flight Track Log - Related Links

Times and Time Zones

All times are in EDT time to prevent confusion due to time zone crossing. See the N182HP flight status page for this flight to view local times or setup timezone preferences in your user account.

Time Position Orientation Groundspeed Altitude Reporting Facility
EDT Latitude Longitude Course Direction KTS MPH feet Rate Location/Type
11:52AM 35.9106 -77.7872 57° Northeast 133 153 3,600  Level Washington Center
11:53AM 35.9275 -77.7697 40° Northeast 106 122 4,100 420 Climbing Washington Center
11:54AM 35.9467 -77.7522 36° Northeast 87 100 4,500 420 Climbing Washington Center
11:55AM 35.9678 -77.7425 20° North 77 89 5,000 480 Climbing Washington Center
11:56AM 35.9867 -77.7303 28° Northeast 77 89 5,500 420 Climbing Washington Center
11:57AM 36.0097 -77.7233 14° North 72 83 5,900 480 Climbing Washington Center
11:58AM 36.0267 -77.7108 31° Northeast 72 83 6,500 480 Climbing Washington Center
11:59AM 36.0478 -77.7011 20° North 72 83 6,900 240 Climbing Washington Center
12:00PM 36.0711 -77.6839 31° Northeast 72 83 7,000  Climbing Washington Center
12:01PM 36.1028 -77.6667 24° Northeast 90 104 7,000  Level Washington Center
12:02PM 36.1342 -77.6469 27° Northeast 111 128 7,000  Level Washington Center
12:03PM 36.1678 -77.6322 19° North 117 135 7,000  Level Washington Center
12:04PM 36.1975 -77.6125 28° Northeast 117 135 7,000  Level Washington Center
12:05PM 36.2292 -77.5953 24° Northeast 117 135 7,000  Level Washington Center
12:06PM 36.2586 -77.5806 22° Northeast 111 128 7,000  Level Washington Center
12:07PM 36.2922 -77.5661 19° North 111 128 7,000  Level Washington Center
12:08PM 36.3258 -77.5514 19° North 116 133 7,000  Level Washington Center
12:09PM 36.3553 -77.5367 22° Northeast 116 133 7,000  Level Washington Center
12:10PM 36.3867 -77.5244 17° North 116 133 7,000  Level Washington Center
12:11PM 36.4222 -77.5125 15° North 111 128 7,100  Climbing Washington Center
12:12PM 36.4581 -77.4953 21° North 116 133 7,100 -60 Level Washington Center
12:13PM 36.4897 -77.4806 20° North 116 133 7,000  Descending Washington Center
12:14PM 36.5211 -77.4683 17° North 116 133 7,100  Climbing Washington Center
12:15PM 36.5547 -77.4561 16° North 116 133 7,100  Level Washington Center
12:16PM 36.5883 -77.4389 22° Northeast 116 133 7,100 -60 Level Washington Center
12:17PM 36.6197 -77.4267 17° North 116 133 7,000  Descending Washington Center
12:18PM 36.6514 -77.4119 20° North 116 133 7,100  Climbing Washington Center
12:19PM 36.6808 -77.3997 18° North 116 133 7,100  Level Washington Center
12:20PM 36.7122 -77.3847 21° North 116 133 7,100  Level Washington Center
12:21PM 36.7436 -77.3725 17° North 116 133 7,100  Level Washington Center
12:22PM 36.7772 -77.3578 19° North 116 133 7,100  Level Washington Center
12:23PM 36.8108 -77.3431 19° North 121 139 7,100  Level Washington Center
12:24PM 36.8444 -77.3283 19° North 121 139 7,100  Level Washington Center
12:25PM 36.8761 -77.3133 21° North 121 139 7,100  Level Washington Center
12:26PM 36.9117 -77.2986 18° North 126 145 7,100  Level Washington Center
12:27PM 36.9433 -77.2811 24° Northeast 126 145 7,100  Level Washington Center
12:28PM 36.9767 -77.2689 16° North 126 145 7,100  Level Washington Center
12:29PM 37.0103 -77.2564 17° North 126 145 7,100  Level Washington Center
12:30PM 37.0439 -77.2389 23° Northeast 126 145 7,100  Level Washington Center
12:31PM 37.0775 -77.2267 16° North 131 151 7,100  Level Washington Center
12:32PM 37.1089 -77.2117 21° North 131 151 7,100  Level Washington Center
12:34PM 37.1833 -77.1833 17° North 130 150 7,100  Level Potomac TRACON
12:35PM 37.2167 -77.1667 22° Northeast 135 155 7,100  Level Potomac TRACON
12:36PM 37.2500 -77.1500 22° Northeast 135 155 7,100  Level Potomac TRACON
12:37PM 37.2833 -77.1333 22° Northeast 129 148 7,100  Level Potomac TRACON
12:38PM 37.3167 -77.1167 22° Northeast 132 152 7,100  Level Potomac TRACON
12:39PM 37.3500 -77.1000 22° Northeast 127 146 7,100  Level Potomac TRACON
12:39PM 37.3833 -77.1000 360° North 130 150 7,100  Level Potomac TRACON
12:40PM 37.4167 -77.0833 22° Northeast 132 152 7,100  Level Potomac TRACON
12:41PM 37.4500 -77.0667 22° Northeast 129 148 7,100  Level Potomac TRACON
12:42PM 37.4833 -77.0500 22° Northeast 133 153 7,100  Level Potomac TRACON
12:43PM 37.5167 -77.0333 22° Northeast 132 152 7,100  Level Potomac TRACON
12:44PM 37.5500 -77.0167 22° Northeast 134 154 7,100  Level Potomac TRACON
12:45PM 37.5833 -77.0000 22° Northeast 155 178 7,100  Level Potomac TRACON
12:46PM 37.6167 -77.0000 360° North 134 154 7,100  Level Potomac TRACON
12:47PM 37.6500 -76.9833 22° Northeast 143 165 7,100  Level Potomac TRACON
12:48PM 37.6833 -76.9667 22° Northeast 142 163 7,100  Level Potomac TRACON
12:49PM 37.7333 -76.9500 15° North 136 157 7,100  Level Potomac TRACON
12:50PM 37.7500 -76.9333 38° Northeast 132 152 7,100  Level Potomac TRACON
12:51PM 37.8000 -76.9167 15° North 137 158 7,100  Level Potomac TRACON
12:52PM 37.8333 -76.9000 22° Northeast 131 151 7,100  Level Potomac TRACON
12:53PM 37.8667 -76.8833 22° Northeast 140 161 7,100  Level Potomac TRACON
12:54PM 37.8972 -76.8786 North 135 155 7,100  Level Washington Center
12:55PM 37.9350 -76.8608 20° North 135 155 7,100  Level Washington Center
12:56PM 37.9728 -76.8456 18° North 136 157 7,100  Level Washington Center
12:57PM 38.0003 -76.8119 44° Northeast 148 170 7,100  Level Washington Center
12:58PM 38.0339 -76.7861 31° Northeast 142 163 7,100  Level Washington Center
12:59PM 38.0694 -76.7550 35° Northeast 140 161 7,100  Level Washington Center
01:00PM 38.1011 -76.7292 33° Northeast 143 165 7,100  Level Washington Center
01:02PM 38.1347 -76.7006 34° Northeast 146 168 7,100  Level Washington Center
01:03PM 38.1706 -76.6719 32° Northeast 150 173 7,100  Level Washington Center
01:03PM 38.2061 -76.6433 32° Northeast 145 167 7,100  Level Washington Center
01:04PM 38.2397 -76.6175 31° Northeast 145 167 7,100  Level Washington Center
01:06PM 38.2733 -76.5861 36° Northeast 144 166 7,100  Level Washington Center
01:07PM 38.3069 -76.5575 34° Northeast 144 166 7,100  Level Washington Center
01:08PM 38.3383 -76.5289 36° Northeast 144 166 7,100  Level Washington Center
01:09PM 38.3719 -76.5028 31° Northeast 146 168 7,100  Level Washington Center
01:10PM 38.4078 -76.4739 32° Northeast 143 165 7,100  Level Washington Center
01:11PM 38.4453 -76.4453 31° Northeast 141 162 7,100  Level Washington Center
01:12PM 38.4789 -76.4164 34° Northeast 142 163 7,100 -60 Level Washington Center
01:13PM 38.5333 -76.3667 36° Northeast 143 165 7,000 -60 Descending Potomac TRACON
01:14PM 38.5667 -76.3333 38° Northeast 144 166 7,000  Level Potomac TRACON
01:15PM 38.6000 -76.3167 21° North 144 166 7,000  Level Potomac TRACON
01:16PM 38.6333 -76.3000 21° North 140 161 7,000  Level Potomac TRACON
01:17PM 38.6667 -76.2833 21° North 129 148 7,000  Level Potomac TRACON
01:18PM 38.7000 -76.3000 339° North 123 142 7,000 -300 Level Potomac TRACON
01:19PM 38.7500 -76.3000 360° North 135 155 6,500 -600 Descending Potomac TRACON
01:20PM 38.7833 -76.3167 339° North 142 163 5,900 -600 Descending Potomac TRACON
01:21PM 38.8167 -76.3167 360° North 141 162 5,300 -600 Descending Potomac TRACON
01:22PM 38.8500 -76.3333 339° North 143 165 4,700 -600 Descending Potomac TRACON
01:23PM 38.9000 -76.3333 360° North 139 160 4,200 -540 Descending Potomac TRACON
01:24PM 38.9333 -76.3500 339° North 138 159 3,600 -540 Descending Potomac TRACON
01:25PM 38.9833 -76.3500 360° North 139 160 3,100 -600 Descending Potomac TRACON
01:26PM 39.0167 -76.3500 360° North 145 167 2,500 -600 Descending Potomac TRACON
01:27PM 39.0500 -76.3500 360° North 143 165 2,000 -300 Descending Potomac TRACON
01:28PM 39.0833 -76.3667 339° North 127 146 2,000  Level Potomac TRACON
01:29PM 39.1333 -76.3667 360° North 131 151 2,000 -60 Level Potomac TRACON
01:30PM 39.1667 -76.3667 360° North 132 152 1,900 -60 Descending Potomac TRACON
01:31PM 39.2000 -76.3667 360° North 133 153 1,900 -60 Level Potomac TRACON
01:32PM 39.2333 -76.3500 21° North 135 155 1,800 -420 Descending Potomac TRACON
01:33PM 39.2667 -76.3500 360° North 127 146 1,100 -480 Descending Potomac TRACON
01:34PM 39.2833 -76.3667 322° Northwest 79 91 900 -300 Descending Potomac TRACON
01:35PM 39.3000 -76.3833 322° Northwest 72 83 500 -420 Descending Potomac TRACON
01:37PM 39.3167 -76.4000 339° North  Level FlightAware Approximate
01:44PM 39.3257 -76.4138 339° North  Level Estimated
01:45PM 39.3257 -76.4138 339° North  Level Estimated